createdAt,value
2023-05-25T00:00:53.771Z,20.07
2023-05-25T00:03:11.256Z,14.57
2023-05-25T00:05:38.731Z,15.50
2023-05-25T00:08:07.125Z,15.88
2023-05-25T00:10:35.465Z,17.87
2023-05-25T00:13:03.034Z,15.40
2023-05-25T00:15:30.686Z,14.17
2023-05-25T00:17:58.314Z,12.90
2023-05-25T00:20:25.879Z,11.93
2023-05-25T00:22:53.466Z,13.85
2023-05-25T00:25:21.038Z,14.33
2023-05-25T00:27:48.613Z,11.90
2023-05-25T00:30:16.221Z,15.40
2023-05-25T00:32:44.640Z,11.23
2023-05-25T00:35:12.136Z,9.60
2023-05-25T00:37:39.744Z,13.40
2023-05-25T00:40:07.429Z,16.23
2023-05-25T00:42:35.023Z,12.77
2023-05-25T00:45:02.663Z,13.80
2023-05-25T00:47:30.224Z,14.87
2023-05-25T00:49:57.790Z,11.63
2023-05-25T00:52:26.130Z,12.47
2023-05-25T00:54:53.715Z,16.53
2023-05-25T00:57:22.057Z,10.00
2023-05-25T00:59:52.609Z,13.80
2023-05-25T01:02:20.245Z,12.87
2023-05-25T01:04:47.763Z,14.90
2023-05-25T01:07:16.196Z,9.80
2023-05-25T01:09:43.768Z,13.70
2023-05-25T01:12:11.342Z,14.53
2023-05-25T01:14:38.956Z,11.60
2023-05-25T01:17:06.517Z,16.87
2023-05-25T01:19:34.104Z,15.43
2023-05-25T01:22:16.714Z,10.73
2023-05-25T01:24:49.750Z,10.43
2023-05-25T01:27:22.970Z,8.17
2023-05-25T01:29:50.542Z,11.77
2023-05-25T01:32:18.249Z,15.53
2023-05-25T01:34:45.714Z,11.63
2023-05-25T01:37:13.346Z,12.37
2023-05-25T01:39:40.914Z,14.13
2023-05-25T01:42:08.525Z,14.00
2023-05-25T01:44:36.109Z,11.03
2023-05-25T01:47:03.658Z,14.47
2023-05-25T01:49:58.582Z,12.73
2023-05-25T01:52:28.568Z,13.00
2023-05-25T01:54:56.085Z,9.20
2023-05-25T01:57:23.727Z,12.53
2023-05-25T01:59:51.322Z,12.90
2023-05-25T02:02:18.896Z,10.23
2023-05-25T02:04:46.550Z,9.00
2023-05-25T02:07:14.072Z,12.27
2023-05-25T02:09:41.712Z,14.82
2023-05-25T02:12:09.320Z,13.43
2023-05-25T02:14:36.891Z,11.70
2023-05-25T02:17:04.456Z,11.53
2023-05-25T02:19:32.082Z,13.97
2023-05-25T02:21:59.648Z,12.33
2023-05-25T02:24:27.283Z,13.20
2023-05-25T02:26:54.843Z,15.07
2023-05-25T02:29:22.428Z,15.50
2023-05-25T02:31:50.112Z,13.60
2023-05-25T02:34:17.634Z,11.60
2023-05-25T02:36:45.207Z,10.97
2023-05-25T02:39:12.766Z,14.87
2023-05-25T02:41:40.389Z,10.07
2023-05-25T02:44:07.946Z,12.70
2023-05-25T02:46:35.508Z,16.07
2023-05-25T02:49:03.164Z,12.87
2023-05-25T02:51:30.705Z,8.73
2023-05-25T02:53:58.269Z,9.33
2023-05-25T02:56:25.891Z,10.13
2023-05-25T02:58:54.237Z,11.80
2023-05-25T03:01:21.873Z,9.57
2023-05-25T03:03:49.511Z,8.93
2023-05-25T03:06:17.024Z,10.60
2023-05-25T03:08:44.598Z,13.00
2023-05-25T03:11:12.263Z,10.70
2023-05-25T03:13:39.832Z,12.30
2023-05-25T03:16:07.424Z,9.97
2023-05-25T03:18:34.992Z,10.70
2023-05-25T03:21:02.593Z,10.73
2023-05-25T03:23:30.966Z,8.13
2023-05-25T03:25:58.560Z,8.20
2023-05-25T03:28:26.133Z,10.13
2023-05-25T03:30:53.699Z,10.43
2023-05-25T03:33:21.333Z,9.07
2023-05-25T03:35:48.908Z,10.63
2023-05-25T03:38:16.523Z,13.60
2023-05-25T03:40:44.113Z,10.57
2023-05-25T03:43:11.707Z,11.07
2023-05-25T03:45:39.280Z,11.17
2023-05-25T03:48:06.866Z,14.50
2023-05-25T03:50:34.435Z,12.23
2023-05-25T03:53:02.028Z,10.50
2023-05-25T03:55:30.407Z,13.27
2023-05-25T03:57:58.716Z,11.43
2023-05-25T04:00:27.184Z,13.63
2023-05-25T04:02:55.779Z,12.30
2023-05-25T04:05:23.384Z,14.67
2023-05-25T04:07:51.074Z,10.60
2023-05-25T04:10:19.695Z,15.03
2023-05-25T04:12:48.193Z,11.97
2023-05-25T04:15:15.788Z,11.07
2023-05-25T04:17:43.386Z,10.03
2023-05-25T04:20:11.001Z,12.43
2023-05-25T04:22:38.510Z,13.50
2023-05-25T04:25:08.899Z,13.07
2023-05-25T04:27:36.452Z,10.00
2023-05-25T04:30:04.027Z,8.63
2023-05-25T04:32:31.669Z,12.43
2023-05-25T04:35:00.005Z,10.77
2023-05-25T04:37:27.697Z,9.73
2023-05-25T04:39:55.195Z,10.53
2023-05-25T04:42:22.762Z,11.37
2023-05-25T04:44:50.416Z,10.53
2023-05-25T04:47:18.115Z,11.97
2023-05-25T04:49:45.681Z,9.17
2023-05-25T04:52:13.330Z,8.47
2023-05-25T04:54:41.047Z,7.53
2023-05-25T04:57:08.602Z,9.77
2023-05-25T04:59:36.169Z,10.90
2023-05-25T05:02:03.778Z,9.93
2023-05-25T05:04:31.363Z,11.30
2023-05-25T05:06:59.189Z,11.43
2023-05-25T05:09:27.392Z,10.10
2023-05-25T05:11:54.961Z,10.87
2023-05-25T05:14:22.516Z,10.77
2023-05-25T05:16:50.968Z,8.23
2023-05-25T05:19:18.515Z,15.63
2023-05-25T05:21:46.106Z,12.63
2023-05-25T05:24:13.694Z,14.60
2023-05-25T05:26:56.356Z,12.40
2023-05-25T05:29:09.634Z,12.30
2023-05-25T05:31:37.313Z,14.65
2023-05-25T05:34:04.895Z,11.63
2023-05-25T05:36:38.980Z,22.60
2023-05-25T05:39:00.014Z,12.87
2023-05-25T05:41:27.583Z,13.15
2023-05-25T05:43:55.220Z,12.97
2023-05-25T05:46:23.677Z,12.30
2023-05-25T05:48:51.251Z,13.43
2023-05-25T05:51:18.920Z,11.77
2023-05-25T05:53:46.533Z,9.33
2023-05-25T05:56:19.800Z,11.35
2023-05-25T05:58:48.156Z,13.20
2023-05-25T06:01:15.769Z,8.67
2023-05-25T06:03:43.360Z,10.93
2023-05-25T06:06:11.042Z,9.23
2023-05-25T06:08:38.583Z,8.50
2023-05-25T06:11:06.965Z,14.77
2023-05-25T06:13:34.560Z,9.13
2023-05-25T06:16:02.280Z,12.23
2023-05-25T06:18:29.783Z,12.57
2023-05-25T06:20:57.360Z,11.77
2023-05-25T06:23:24.975Z,11.57
2023-05-25T06:25:52.555Z,11.67
2023-05-25T06:28:20.182Z,12.83
2023-05-25T06:30:48.272Z,10.80
2023-05-25T06:33:15.828Z,10.33
2023-05-25T06:35:43.550Z,12.37
2023-05-25T06:38:11.774Z,12.15
2023-05-25T06:40:40.120Z,14.20
2023-05-25T06:43:07.702Z,12.33
2023-05-25T06:45:35.323Z,9.97
2023-05-25T06:48:02.927Z,8.93
2023-05-25T06:50:30.543Z,9.90
2023-05-25T06:53:00.346Z,10.07
2023-05-25T06:55:25.799Z,8.57
2023-05-25T06:57:53.392Z,9.90
2023-05-25T07:00:21.061Z,11.98
2023-05-25T07:02:48.669Z,7.87
2023-05-25T07:05:16.288Z,8.63
2023-05-25T07:07:43.888Z,14.35
2023-05-25T07:10:11.445Z,8.47
2023-05-25T07:12:39.030Z,15.30
2023-05-25T07:15:07.554Z,11.77
2023-05-25T07:17:35.129Z,7.97
2023-05-25T07:20:02.720Z,8.67
2023-05-25T07:22:30.354Z,7.30
2023-05-25T07:24:58.287Z,13.10
2023-05-25T07:27:26.625Z,10.20
2023-05-25T07:29:54.268Z,5.40
2023-05-25T07:32:21.880Z,9.90
2023-05-25T07:34:49.443Z,9.10
2023-05-25T07:37:17.062Z,8.93
2023-05-25T07:39:44.651Z,11.13
2023-05-25T07:42:12.253Z,11.73
2023-05-25T07:44:40.636Z,14.83
2023-05-25T07:47:08.239Z,8.27
2023-05-25T07:49:35.844Z,11.03
2023-05-25T07:52:03.471Z,15.10
2023-05-25T07:54:31.046Z,11.40
2023-05-25T07:56:58.625Z,12.40
2023-05-25T07:59:26.346Z,11.23
2023-05-25T08:01:53.996Z,12.33
2023-05-25T08:04:21.667Z,20.13
2023-05-25T08:06:49.228Z,11.18
2023-05-25T08:09:16.804Z,7.90
2023-05-25T08:11:44.473Z,10.67
2023-05-25T08:14:12.080Z,7.63
2023-05-25T08:16:39.673Z,8.20
2023-05-25T08:19:07.232Z,6.23
2023-05-25T08:21:37.662Z,5.87
2023-05-25T08:24:05.275Z,10.43
2023-05-25T08:26:52.345Z,7.47
2023-05-25T08:29:00.459Z,7.60
2023-05-25T08:31:28.070Z,11.23
2023-05-25T08:33:55.602Z,10.57
2023-05-25T08:36:23.234Z,12.30
2023-05-25T08:38:50.848Z,9.65
2023-05-25T08:41:19.208Z,7.40
2023-05-25T08:43:46.801Z,6.43
2023-05-25T08:46:14.389Z,9.40
2023-05-25T08:48:42.873Z,8.93
2023-05-25T08:51:11.005Z,8.37
2023-05-25T08:53:37.214Z,6.93
2023-05-25T08:56:07.885Z,8.63
2023-05-25T08:58:35.480Z,6.80
2023-05-25T09:01:03.066Z,9.30
2023-05-25T09:03:30.687Z,9.40
2023-05-25T09:05:58.285Z,6.90
2023-05-25T09:08:25.874Z,9.80
2023-05-25T09:10:53.470Z,7.10
2023-05-25T09:13:23.082Z,4.70
2023-05-25T09:15:49.460Z,7.33
2023-05-25T09:18:17.145Z,8.20
2023-05-25T09:20:47.042Z,6.47
2023-05-25T09:23:12.281Z,5.00
2023-05-25T09:25:39.883Z,10.03
2023-05-25T09:28:24.793Z,8.27
2023-05-25T09:30:35.219Z,6.80
2023-05-25T09:33:11.876Z,5.13
2023-05-25T09:35:39.429Z,8.83
2023-05-25T09:38:07.197Z,6.63
2023-05-25T09:40:34.679Z,6.10
2023-05-25T09:43:04.979Z,8.15
2023-05-25T09:45:32.603Z,9.93
2023-05-25T09:48:01.023Z,5.87
2023-05-25T09:50:29.373Z,5.90
2023-05-25T09:52:56.928Z,6.60
2023-05-25T09:55:25.328Z,6.67
2023-05-25T09:57:55.643Z,8.23
2023-05-25T10:00:23.147Z,6.47
2023-05-25T10:02:50.798Z,6.33
2023-05-25T10:07:40.683Z,7.37
2023-05-25T10:10:09.057Z,8.87
2023-05-25T10:12:37.406Z,7.73
2023-05-25T10:15:04.963Z,5.30
2023-05-25T10:17:32.605Z,5.87
2023-05-25T10:20:02.977Z,7.47
2023-05-25T10:22:33.499Z,8.57
2023-05-25T10:25:07.726Z,6.23
2023-05-25T10:27:41.965Z,4.17
2023-05-25T10:30:09.566Z,5.82
2023-05-25T10:32:40.073Z,7.83
2023-05-25T10:35:08.415Z,7.13
2023-05-25T10:37:36.000Z,6.53
2023-05-25T10:40:03.661Z,7.53
2023-05-25T10:42:31.233Z,7.13
2023-05-25T10:44:58.814Z,6.40
2023-05-25T10:47:26.518Z,4.90
2023-05-25T10:49:57.123Z,7.10
2023-05-25T10:52:30.465Z,4.87
2023-05-25T10:54:58.106Z,7.50
2023-05-25T10:57:25.602Z,5.37
2023-05-25T10:59:53.216Z,7.17
2023-05-25T11:02:23.749Z,4.70
2023-05-25T11:04:51.135Z,8.53
2023-05-25T11:07:18.756Z,8.87
2023-05-25T11:09:46.367Z,5.53
2023-05-25T11:12:22.967Z,4.53
2023-05-25T11:15:11.989Z,6.33
2023-05-25T11:17:45.637Z,6.03
2023-05-25T11:20:13.242Z,5.90
2023-05-25T11:22:40.742Z,5.17
2023-05-25T11:25:26.407Z,11.57
2023-05-25T11:27:53.983Z,7.53
2023-05-25T11:30:21.565Z,6.53
2023-05-25T11:32:50.005Z,5.85
2023-05-25T11:35:17.546Z,6.27
2023-05-25T11:37:45.143Z,3.13
2023-05-25T11:40:12.792Z,6.27
2023-05-25T11:42:40.381Z,3.57
2023-05-25T11:45:08.046Z,5.75
2023-05-25T11:47:36.013Z,5.10
2023-05-25T11:50:03.276Z,5.20
2023-05-25T11:52:30.829Z,8.30
2023-05-25T11:54:59.219Z,5.00
2023-05-25T11:57:27.552Z,6.27
2023-05-25T11:59:55.137Z,6.07
2023-05-25T12:02:23.696Z,3.43
2023-05-25T12:05:00.418Z,5.93
2023-05-25T12:07:28.039Z,5.40
2023-05-25T12:10:10.587Z,6.40
2023-05-25T12:12:44.412Z,6.73
2023-05-25T12:15:12.047Z,5.60
2023-05-25T12:17:43.225Z,4.33
2023-05-25T12:20:10.817Z,7.27
2023-05-25T12:22:38.401Z,4.20
2023-05-25T12:25:05.948Z,5.40
2023-05-25T12:27:33.575Z,3.80
2023-05-25T12:30:01.155Z,5.97
2023-05-25T12:32:28.782Z,2.70
2023-05-25T12:35:03.056Z,5.23
2023-05-25T12:37:31.402Z,3.03
2023-05-25T12:40:00.200Z,7.13
2023-05-25T12:42:26.584Z,5.20
2023-05-25T12:44:56.864Z,4.55
2023-05-25T12:47:24.434Z,10.47
2023-05-25T12:50:10.950Z,2.73
2023-05-25T12:52:39.437Z,6.40
2023-05-25T12:55:27.464Z,7.60
2023-05-25T12:57:54.892Z,3.40
2023-05-25T13:00:22.474Z,8.53
2023-05-25T13:02:50.944Z,6.10
2023-05-25T13:05:19.419Z,7.67
2023-05-25T13:07:46.902Z,4.73
2023-05-25T13:10:15.302Z,5.97
2023-05-25T13:12:43.604Z,7.10
2023-05-25T13:15:11.189Z,2.47
2023-05-25T13:17:38.839Z,5.43
2023-05-25T13:20:06.616Z,7.63
2023-05-25T13:22:34.056Z,5.57
2023-05-25T13:25:01.667Z,5.90
2023-05-25T13:27:30.028Z,4.72
2023-05-25T13:29:57.595Z,4.00
2023-05-25T13:32:26.030Z,6.50
2023-05-25T13:34:53.574Z,4.67
2023-05-25T13:37:21.159Z,3.77
2023-05-25T13:39:48.761Z,7.00
2023-05-25T13:42:16.347Z,4.73
2023-05-25T13:44:43.931Z,4.47
2023-05-25T13:47:11.630Z,7.93
2023-05-25T13:49:39.156Z,6.40
2023-05-25T13:52:06.732Z,4.60
2023-05-25T13:54:34.345Z,4.93
2023-05-25T13:57:01.934Z,5.97
2023-05-25T13:59:29.504Z,7.17
2023-05-25T14:01:57.321Z,5.60
2023-05-25T14:04:24.849Z,6.00
2023-05-25T14:06:53.191Z,5.80
2023-05-25T14:09:20.848Z,5.13
2023-05-25T14:11:48.424Z,6.07
2023-05-25T14:14:30.048Z,6.47
2023-05-25T14:16:44.439Z,3.70
2023-05-25T14:19:11.992Z,4.17
2023-05-25T14:21:39.572Z,5.10
2023-05-25T14:24:07.269Z,4.83
2023-05-25T14:26:35.612Z,7.17
2023-05-25T14:29:03.245Z,6.72
2023-05-25T14:31:30.921Z,4.60
2023-05-25T14:33:59.210Z,6.60
2023-05-25T14:36:26.789Z,3.13
2023-05-25T14:38:54.421Z,4.93
2023-05-25T14:41:22.009Z,5.62
2023-05-25T14:43:49.586Z,7.70
2023-05-25T14:46:18.030Z,5.40
2023-05-25T14:48:45.573Z,7.23
2023-05-25T14:51:13.139Z,5.30
2023-05-25T14:53:40.806Z,7.17
2023-05-25T14:56:10.484Z,3.67
2023-05-25T14:58:36.007Z,8.33
2023-05-25T15:01:04.335Z,6.17
2023-05-25T15:03:32.848Z,3.30
2023-05-25T15:06:00.281Z,5.13
2023-05-25T15:08:28.670Z,5.73
2023-05-25T15:10:57.008Z,4.17
2023-05-25T15:13:24.793Z,6.83
2023-05-25T15:15:53.189Z,6.05
2023-05-25T15:18:21.532Z,5.73
2023-05-25T15:20:49.158Z,5.13
2023-05-25T15:23:16.718Z,6.83
2023-05-25T15:25:44.324Z,6.77
2023-05-25T15:28:11.893Z,7.07
2023-05-25T15:30:40.279Z,3.67
2023-05-25T15:33:08.637Z,5.23
2023-05-25T15:35:36.204Z,4.97
2023-05-25T15:38:03.821Z,6.90
2023-05-25T15:40:31.440Z,4.93
2023-05-25T15:42:59.006Z,4.70
2023-05-25T15:45:26.640Z,6.53
2023-05-25T15:47:54.255Z,3.37
2023-05-25T15:50:21.767Z,6.10
2023-05-25T15:52:49.388Z,7.60
2023-05-25T15:55:16.966Z,6.28
2023-05-25T15:57:44.552Z,8.07
2023-05-25T16:00:13.189Z,6.05
2023-05-25T16:02:40.812Z,4.87
2023-05-25T16:05:08.376Z,5.00
2023-05-25T16:07:36.042Z,6.43
2023-05-25T16:10:03.619Z,9.80
2023-05-25T16:12:31.183Z,8.23
2023-05-25T16:14:58.822Z,6.70
2023-05-25T16:17:28.153Z,9.97
2023-05-25T16:19:55.854Z,6.40
2023-05-25T16:22:23.420Z,8.70
2023-05-25T16:24:51.770Z,9.83
2023-05-25T16:27:19.394Z,10.97
2023-05-25T16:29:47.745Z,11.87
2023-05-25T16:32:16.133Z,9.10
2023-05-25T16:34:44.486Z,10.37
2023-05-25T16:37:12.100Z,8.97
2023-05-25T16:39:39.676Z,11.77
2023-05-25T16:42:07.260Z,9.03
2023-05-25T16:44:34.873Z,9.38
2023-05-25T16:47:02.448Z,8.87
2023-05-25T16:49:30.035Z,9.00
2023-05-25T16:51:57.655Z,9.00
2023-05-25T16:54:25.236Z,10.17
2023-05-25T16:56:52.815Z,9.00
2023-05-25T16:59:20.433Z,6.87
2023-05-25T17:01:48.101Z,9.52
2023-05-25T17:04:15.593Z,7.13
2023-05-25T17:06:43.222Z,10.30
2023-05-25T17:09:10.782Z,11.30
2023-05-25T17:11:38.377Z,12.67
2023-05-25T17:14:06.005Z,9.20
2023-05-25T17:16:33.606Z,8.10
2023-05-25T17:19:01.173Z,9.87
2023-05-25T17:21:28.827Z,8.63
2023-05-25T17:23:56.399Z,7.90
2023-05-25T17:26:24.759Z,8.37
2023-05-25T17:28:52.536Z,8.30
2023-05-25T17:31:20.883Z,8.63
2023-05-25T17:33:48.445Z,9.03
2023-05-25T17:36:16.198Z,8.80
2023-05-25T17:38:43.810Z,10.87
2023-05-25T17:41:12.130Z,7.77
2023-05-25T17:43:39.762Z,9.67
2023-05-25T17:46:07.445Z,8.77
2023-05-25T17:48:34.916Z,8.13
2023-05-25T17:51:02.536Z,10.07
2023-05-25T17:53:30.135Z,8.87
2023-05-25T17:55:57.727Z,9.77
2023-05-25T17:58:25.353Z,9.40
2023-05-25T18:00:53.034Z,9.20
2023-05-25T18:03:20.627Z,6.97
2023-05-25T18:05:48.892Z,9.47
2023-05-25T18:08:17.247Z,10.33
2023-05-25T18:10:44.824Z,11.20
2023-05-25T18:13:12.456Z,11.40
2023-05-25T18:15:40.044Z,10.23
2023-05-25T18:18:07.713Z,11.75
2023-05-25T18:20:35.315Z,7.50
2023-05-25T18:23:02.842Z,8.73
2023-05-25T18:25:30.419Z,10.03
2023-05-25T18:27:58.089Z,10.97
2023-05-25T18:30:26.408Z,8.80
2023-05-25T18:32:54.067Z,11.00
2023-05-25T18:35:22.374Z,9.98
2023-05-25T18:37:50.749Z,8.27
2023-05-25T18:40:18.319Z,10.60
2023-05-25T18:42:46.714Z,12.43
2023-05-25T18:45:14.283Z,9.83
2023-05-25T18:47:41.923Z,11.33
2023-05-25T18:50:09.554Z,9.60
2023-05-25T18:52:37.127Z,10.43
2023-05-25T18:55:05.577Z,11.70
2023-05-25T18:57:33.196Z,10.30
2023-05-25T19:00:00.791Z,12.73
2023-05-25T19:02:28.430Z,12.40
2023-05-25T19:04:55.953Z,11.63
2023-05-25T19:07:24.299Z,10.63
2023-05-25T19:09:51.938Z,12.30
2023-05-25T19:12:20.303Z,9.23
2023-05-25T19:14:47.883Z,13.93
2023-05-25T19:17:15.479Z,12.27
2023-05-25T19:19:43.096Z,11.52
2023-05-25T19:22:10.677Z,9.30
2023-05-25T19:24:42.416Z,9.67
2023-05-25T19:27:06.641Z,8.57
2023-05-25T19:29:34.969Z,8.70
2023-05-25T19:32:02.631Z,8.40
2023-05-25T19:34:30.163Z,9.37
2023-05-25T19:37:10.222Z,9.10
2023-05-25T19:39:26.232Z,8.67
2023-05-25T19:41:54.404Z,9.88
2023-05-25T19:44:21.976Z,10.80
2023-05-25T19:46:49.558Z,8.67
2023-05-25T19:49:17.171Z,9.43
2023-05-25T19:51:44.745Z,10.17
2023-05-25T19:54:12.328Z,12.00
2023-05-25T19:56:40.727Z,10.30
2023-05-25T19:59:07.553Z,8.53
2023-05-25T20:01:35.165Z,7.67
2023-05-25T20:04:03.550Z,11.17
2023-05-25T20:06:31.122Z,10.30
2023-05-25T20:08:58.713Z,13.90
2023-05-25T20:11:26.321Z,9.40
2023-05-25T20:13:53.925Z,9.00
2023-05-25T20:16:21.565Z,12.87
2023-05-25T20:18:49.885Z,12.03
2023-05-25T20:21:18.231Z,10.47
2023-05-25T20:23:45.824Z,9.37
2023-05-25T20:26:13.428Z,12.80
2023-05-25T20:28:41.011Z,15.00
2023-05-25T20:31:08.590Z,11.73
2023-05-25T20:33:36.235Z,11.18
2023-05-25T20:36:03.816Z,10.73
2023-05-25T20:38:32.153Z,13.37
2023-05-25T20:40:59.866Z,10.43
2023-05-25T20:43:28.211Z,9.07
2023-05-25T20:45:55.863Z,10.47
2023-05-25T20:48:23.458Z,13.37
2023-05-25T20:50:51.787Z,12.07
2023-05-25T20:53:19.361Z,12.33
2023-05-25T20:55:47.153Z,9.30
2023-05-25T20:58:14.725Z,13.00
2023-05-25T21:00:43.067Z,11.63
2023-05-25T21:03:10.781Z,9.97
2023-05-25T21:05:38.269Z,9.47
2023-05-25T21:08:05.837Z,11.90
2023-05-25T21:10:33.474Z,12.27
2023-05-25T21:13:01.040Z,12.70
2023-05-25T21:15:28.612Z,11.27
2023-05-25T21:17:56.314Z,11.43
2023-05-25T21:20:24.736Z,10.73
2023-05-25T21:22:52.219Z,11.50
2023-05-25T21:25:20.008Z,12.20
2023-05-25T21:27:47.627Z,14.00
2023-05-25T21:30:15.934Z,11.75
2023-05-25T21:32:43.668Z,13.33
2023-05-25T21:35:11.149Z,14.00
2023-05-25T21:37:38.738Z,14.10
2023-05-25T21:40:06.463Z,14.20
2023-05-25T21:42:34.054Z,15.02
2023-05-25T21:45:02.420Z,12.70
2023-05-25T21:47:30.088Z,13.63
2023-05-25T21:49:57.611Z,13.25
2023-05-25T21:52:25.180Z,13.83
2023-05-25T21:54:52.845Z,11.70
2023-05-25T21:57:20.420Z,11.03
2023-05-25T21:59:47.981Z,11.90
2023-05-25T22:02:15.680Z,11.85
2023-05-25T22:04:43.216Z,10.83
2023-05-25T22:07:11.596Z,12.77
2023-05-25T22:09:39.339Z,12.80
2023-05-25T22:12:06.979Z,13.50
2023-05-25T22:14:34.519Z,10.88
2023-05-25T22:17:02.218Z,12.13
2023-05-25T22:19:30.483Z,11.87
2023-05-25T22:21:58.060Z,16.80
2023-05-25T22:24:25.692Z,10.43
2023-05-25T22:26:53.260Z,13.30
2023-05-25T22:29:20.855Z,14.67
2023-05-25T22:31:49.234Z,16.17
2023-05-25T22:34:17.595Z,11.77
2023-05-25T22:36:45.158Z,21.00
2023-05-25T22:39:12.771Z,11.53
2023-05-25T22:41:40.355Z,11.73
2023-05-25T22:44:07.959Z,14.80
2023-05-25T22:46:35.616Z,13.50
2023-05-25T22:49:03.156Z,11.90
2023-05-25T22:51:30.740Z,15.25
2023-05-25T22:53:59.143Z,12.57
2023-05-25T22:56:26.715Z,13.63
2023-05-25T22:58:54.280Z,13.67
2023-05-25T23:01:21.961Z,12.23
2023-05-25T23:03:49.740Z,13.03
2023-05-25T23:06:17.254Z,12.73
2023-05-25T23:08:44.891Z,15.30
2023-05-25T23:11:13.237Z,15.57
2023-05-25T23:13:40.801Z,12.07
2023-05-25T23:16:08.484Z,16.97
2023-05-25T23:18:36.033Z,13.30
2023-05-25T23:21:04.400Z,14.80
2023-05-25T23:23:32.161Z,15.10
2023-05-25T23:25:59.747Z,15.30
2023-05-25T23:28:28.139Z,13.47
2023-05-25T23:30:55.749Z,13.37
2023-05-25T23:33:23.326Z,15.75
2023-05-25T23:35:51.680Z,13.43
2023-05-25T23:38:19.303Z,15.80
2023-05-25T23:40:46.902Z,12.13
2023-05-25T23:43:14.460Z,14.47
2023-05-25T23:45:42.133Z,16.20
2023-05-25T23:48:09.719Z,11.80
2023-05-25T23:50:37.279Z,16.13
2023-05-25T23:53:04.863Z,15.37
2023-05-25T23:55:32.429Z,11.07
2023-05-25T23:58:00.044Z,17.00
